Time;durP1;ratioP1;P1;durP2;ratioP2;P2;SDS_P1;SDS_P2;PMS_P1;PMS_P2;Temp;Humidity;BMP_temperature;BMP_pressure;BME280_temperature;BME280_humidity;BME280_pressure;Samples;Min_cycle;Max_cycle;Signal;HPM_P1;HPM_P2
2022/08/24 00:02:23;;;;;;;23.80;14.05;;;;;;;19.69;100.00;101539.69;5043187;28;20025;-61
2022/08/24 00:04:49;;;;;;;22.98;13.57;;;;;;;19.67;100.00;101537.94;5042843;28;20022;-67
2022/08/24 00:07:15;;;;;;;22.45;13.23;;;;;;;19.80;100.00;101538.59;5043310;28;20029;-67
2022/08/24 00:09:41;;;;;;;23.88;13.95;;;;;;;19.66;100.00;101537.09;5041825;28;20040;-68
2022/08/24 00:12:07;;;;;;;23.25;14.35;;;;;;;19.52;100.00;101534.69;5037247;28;20101;-67
2022/08/24 00:14:32;;;;;;;23.15;13.40;;;;;;;19.48;100.00;101540.16;5044388;28;20025;-67
2022/08/24 00:16:58;;;;;;;23.60;13.95;;;;;;;19.32;100.00;101543.19;5042673;28;20029;-66
2022/08/24 00:19:24;;;;;;;22.85;13.85;;;;;;;19.25;100.00;101543.31;5042757;28;20032;-68
2022/08/24 00:21:50;;;;;;;22.88;14.00;;;;;;;19.10;100.00;101542.72;5043638;28;20029;-67
2022/08/24 00:24:16;;;;;;;24.10;13.63;;;;;;;19.16;100.00;101547.97;5042190;28;20377;-67
2022/08/24 00:26:41;;;;;;;24.55;15.18;;;;;;;19.24;100.00;101553.19;5044282;28;20021;-67
2022/08/24 00:29:07;;;;;;;25.38;14.85;;;;;;;19.21;100.00;101549.66;5041039;28;20060;-67
2022/08/24 00:31:32;;;;;;;24.02;15.15;;;;;;;19.12;100.00;101546.28;5044290;28;20120;-67
2022/08/24 00:33:58;;;;;;;24.70;15.00;;;;;;;18.97;100.00;101549.25;5041914;28;20094;-67
2022/08/24 00:36:23;;;;;;;23.85;15.55;;;;;;;19.04;100.00;101558.94;5042345;28;20475;-67
2022/08/24 00:38:49;;;;;;;24.73;14.82;;;;;;;19.08;100.00;101562.44;5043472;28;20040;-67
2022/08/24 00:41:16;;;;;;;24.10;15.63;;;;;;;19.16;100.00;101557.81;5041443;28;20033;-67
2022/08/24 00:44:00;;;;;;;23.80;14.07;;;;;;;19.06;100.00;101556.22;5044178;28;20048;-67
2022/08/24 00:46:42;;;;;;;24.85;15.65;;;;;;;18.96;100.00;101556.41;5042563;28;20021;-66
2022/08/24 00:49:12;;;;;;;26.60;17.02;;;;;;;18.93;100.00;101559.16;5037189;28;20034;-67
2022/08/24 00:51:51;;;;;;;28.42;16.88;;;;;;;18.85;100.00;101557.50;5037065;28;20155;-67
2022/08/24 00:54:17;;;;;;;23.67;14.63;;;;;;;18.72;100.00;101556.84;5038741;28;20104;-67
2022/08/24 00:56:51;;;;;;;23.98;14.93;;;;;;;18.61;100.00;101552.56;5043824;28;20024;-67
2022/08/24 00:59:25;;;;;;;24.83;14.43;;;;;;;18.58;100.00;101559.75;5041800;28;20137;-67
2022/08/24 01:01:52;;;;;;;24.58;15.32;;;;;;;18.61;100.00;101555.25;5043122;28;20040;-68
2022/08/24 01:04:27;;;;;;;24.15;15.25;;;;;;;18.57;100.00;101566.03;5041524;28;20474;-66
2022/08/24 01:06:52;;;;;;;25.13;15.30;;;;;;;18.50;100.00;101561.69;5042423;28;20552;-67
2022/08/24 01:09:18;;;;;;;26.45;15.25;;;;;;;18.51;100.00;101560.75;5041494;28;20057;-62
2022/08/24 01:11:43;;;;;;;23.95;15.90;;;;;;;18.60;100.00;101552.59;5044155;28;20349;-67
2022/08/24 01:14:09;;;;;;;23.92;15.10;;;;;;;18.65;100.00;101550.69;5040745;28;20030;-67
2022/08/24 01:19:47;;;;;;;25.55;16.23;;;;;;;18.60;100.00;101552.59;5042337;28;20080;-67
2022/08/24 01:22:53;;;;;;;24.90;16.45;;;;;;;18.56;100.00;101556.22;5041435;28;20053;-67
2022/08/24 01:25:22;;;;;;;26.23;15.88;;;;;;;18.49;100.00;101559.91;5042925;28;20388;-67
2022/08/24 01:27:49;;;;;;;24.67;15.48;;;;;;;18.37;100.00;101563.69;5046767;28;20112;-68
2022/08/24 01:30:15;;;;;;;24.63;16.65;;;;;;;18.37;100.00;101558.34;5044814;28;20072;-67
2022/08/24 01:32:50;;;;;;;25.83;16.25;;;;;;;18.31;100.00;101555.78;5047880;28;20024;-67
2022/08/24 01:35:16;;;;;;;25.48;15.75;;;;;;;18.27;100.00;101558.47;5041859;28;20473;-68
2022/08/24 01:37:41;;;;;;;25.17;16.55;;;;;;;18.34;100.00;101551.25;5047713;28;20040;-66
2022/08/24 01:40:07;;;;;;;27.08;17.73;;;;;;;18.48;100.00;101548.34;5040477;28;20033;-67
2022/08/24 01:42:33;;;;;;;25.63;17.20;;;;;;;18.53;100.00;101543.78;5047172;28;20502;-67
2022/08/24 01:44:59;;;;;;;28.33;19.15;;;;;;;18.53;100.00;101548.25;5045347;28;20029;-69
2022/08/24 01:47:24;;;;;;;27.00;18.60;;;;;;;18.54;100.00;101536.66;5045546;28;20030;-68
2022/08/24 01:49:50;;;;;;;27.80;17.73;;;;;;;18.44;100.00;101544.81;5046034;28;20369;-67
2022/08/24 01:52:22;;;;;;;25.75;17.38;;;;;;;18.40;100.00;101543.09;5044630;28;20033;-68
2022/08/24 01:54:48;;;;;;;;;;;;;;;18.49;100.00;101543.88;5047240;28;20033;-68
2022/08/24 01:57:14;;;;;;;26.50;17.13;;;;;;;18.34;100.00;101542.34;5044293;28;20387;-68
2022/08/24 01:59:40;;;;;;;27.67;18.27;;;;;;;18.20;100.00;101543.47;5047315;28;20070;-67
2022/08/24 02:02:13;;;;;;;27.02;18.25;;;;;;;18.23;100.00;101547.84;5043722;28;20028;-65
2022/08/24 02:04:39;;;;;;;26.00;17.23;;;;;;;18.18;100.00;101547.94;5039852;28;20037;-66
2022/08/24 02:07:05;;;;;;;26.27;17.23;;;;;;;18.09;100.00;101543.63;5046611;28;20029;-66
2022/08/24 02:09:30;;;;;;;25.50;16.88;;;;;;;18.03;100.00;101540.16;5044679;28;20032;-65
2022/08/24 02:11:56;;;;;;;26.48;17.88;;;;;;;17.98;100.00;101542.03;5045376;28;20021;-65
2022/08/24 02:14:21;;;;;;;26.70;17.70;;;;;;;17.89;100.00;101545.69;5046097;28;20380;-65
2022/08/24 02:16:47;;;;;;;26.48;17.88;;;;;;;17.82;100.00;101550.22;5043995;28;20083;-67
2022/08/24 02:19:13;;;;;;;26.30;17.00;;;;;;;17.74;100.00;101547.69;5046658;28;20100;-66
2022/08/24 02:21:38;;;;;;;25.20;17.45;;;;;;;17.62;100.00;101544.28;5039809;28;20030;-64
2022/08/24 02:24:04;;;;;;;25.42;17.55;;;;;;;17.63;100.00;101549.59;5046322;28;20607;-65
2022/08/24 02:26:30;;;;;;;26.70;17.95;;;;;;;17.63;100.00;101554.97;5044046;28;20040;-66
2022/08/24 02:28:55;;;;;;;25.55;17.85;;;;;;;17.62;100.00;101553.22;5045149;28;20368;-67
2022/08/24 02:31:20;;;;;;;26.75;18.50;;;;;;;17.65;100.00;101558.50;5044913;28;20032;-67
2022/08/24 02:33:46;;;;;;;26.13;17.90;;;;;;;17.63;100.00;101562.97;5043476;28;20033;-67
2022/08/24 02:36:13;;;;;;;26.90;18.38;;;;;;;17.56;100.00;101564.88;5046975;28;20024;-67
2022/08/24 02:38:39;;;;;;;26.20;18.25;;;;;;;17.52;100.00;101564.94;5037809;28;20022;-68
2022/08/24 02:41:05;;;;;;;27.13;17.85;;;;;;;17.47;100.00;101564.09;5046067;28;20021;-67
2022/08/24 02:43:31;;;;;;;26.23;18.42;;;;;;;17.35;100.00;101565.13;5044007;28;20154;-67
2022/08/24 02:45:56;;;;;;;27.48;18.38;;;;;;;17.38;100.00;101571.31;5044767;28;20480;-67
2022/08/24 02:48:22;;;;;;;27.15;17.38;;;;;;;17.39;100.00;101562.41;5044828;28;20207;-67
2022/08/24 02:50:50;;;;;;;28.90;19.13;;;;;;;17.46;100.00;101568.56;5043426;28;20081;-66
2022/08/24 02:53:16;;;;;;;30.20;20.48;;;;;;;17.42;100.00;101565.03;5045836;28;20095;-66
2022/08/24 02:55:43;;;;;;;28.05;18.33;;;;;;;17.40;100.00;101569.53;5042702;28;20029;-67
2022/08/24 02:58:10;;;;;;;26.55;17.65;;;;;;;17.44;100.00;101575.69;5039095;28;20087;-66
2022/08/24 03:00:37;;;;;;;27.17;16.92;;;;;;;17.39;100.00;101573.09;5045662;28;20498;-68
2022/08/24 03:03:05;;;;;;;28.58;17.50;;;;;;;17.31;100.00;101564.28;5043250;28;20167;-67
2022/08/24 03:05:31;;;;;;;29.08;17.67;;;;;;;17.31;100.00;101568.75;5045101;28;20044;-68
2022/08/24 03:07:57;;;;;;;28.02;17.75;;;;;;;17.35;100.00;101566.00;5044067;28;20029;-67
2022/08/24 03:10:22;;;;;;;26.70;17.92;;;;;;;17.30;100.00;101559.84;5043741;28;20095;-67
2022/08/24 03:12:49;;;;;;;25.23;16.40;;;;;;;17.32;100.00;101562.50;5045392;28;20056;-67
2022/08/24 03:15:15;;;;;;;27.75;18.00;;;;;;;17.24;100.00;101566.16;5042517;28;20038;-67
2022/08/24 03:17:41;;;;;;;27.08;17.83;;;;;;;17.20;100.00;101566.22;5045618;28;20029;-67
2022/08/24 03:20:11;;;;;;;26.02;17.55;;;;;;;17.12;100.00;101568.06;5042696;28;20380;-67
2022/08/24 03:22:37;;;;;;;27.23;18.02;;;;;;;17.07;100.00;101562.78;5045559;28;20025;-67
2022/08/24 03:25:03;;;;;;;27.15;18.42;;;;;;;17.06;100.00;101564.56;5042909;28;20418;-67
2022/08/24 03:27:29;;;;;;;27.33;19.45;;;;;;;17.01;100.00;101557.53;5044427;28;20084;-68
2022/08/24 03:29:54;;;;;;;28.75;20.20;;;;;;;17.15;100.00;101568.03;5043907;28;20021;-68
2022/08/24 03:32:20;;;;;;;27.27;18.95;;;;;;;17.19;100.00;101559.97;5042745;28;20026;-68
2022/08/24 03:34:45;;;;;;;27.88;18.63;;;;;;;17.20;100.00;101555.53;5045198;28;20349;-67
2022/08/24 03:37:11;;;;;;;27.75;18.33;;;;;;;17.23;100.00;101559.03;5041911;28;20033;-67
2022/08/24 03:39:37;;;;;;;28.35;18.83;;;;;;;17.13;100.00;101556.50;5045153;28;20777;-67
2022/08/24 03:42:02;;;;;;;29.70;20.60;;;;;;;17.20;100.00;101551.06;5042665;28;20106;-67
2022/08/24 03:44:27;;;;;;;27.42;19.33;;;;;;;17.11;100.00;101552.94;5042691;28;20069;-68
2022/08/24 03:46:53;;;;;;;27.77;19.95;;;;;;;17.08;100.00;101556.53;5043958;28;20029;-69
2022/08/24 03:49:19;;;;;;;27.52;19.17;;;;;;;16.93;100.00;101557.59;5040684;28;20065;-68
2022/08/24 03:51:44;;;;;;;27.95;19.33;;;;;;;16.82;100.00;101552.34;5044837;28;20025;-69
2022/08/24 03:54:11;;;;;;;27.17;19.17;;;;;;;16.77;100.00;101563.97;5041953;28;20022;-68
2022/08/24 03:56:37;;;;;;;28.40;19.35;;;;;;;16.71;100.00;101557.78;5044576;28;20487;-68
2022/08/24 03:59:03;;;;;;;27.70;18.88;;;;;;;16.74;100.00;101562.19;5042389;28;20068;-68
2022/08/24 04:01:29;;;;;;;27.02;18.27;;;;;;;16.78;100.00;101563.06;5043771;28;20028;-69
2022/08/24 04:03:55;;;;;;;27.45;19.15;;;;;;;16.70;100.00;101561.38;5043403;28;20017;-69
2022/08/24 04:06:21;;;;;;;27.02;18.70;;;;;;;16.71;100.00;101565.78;5042474;28;20025;-69
2022/08/24 04:08:47;;;;;;;27.92;19.23;;;;;;;16.66;100.00;101564.97;5044582;28;20115;-68
2022/08/24 04:11:16;;;;;;;29.10;19.00;;;;;;;16.61;100.00;101572.09;5041578;28;20048;-69
2022/08/24 04:13:42;;;;;;;27.75;18.70;;;;;;;16.53;100.00;101568.66;5037656;28;20071;-69
2022/08/24 04:16:11;;;;;;;28.60;20.58;;;;;;;16.54;100.00;101573.06;5044835;28;20375;-69
2022/08/24 04:18:37;;;;;;;27.65;19.40;;;;;;;16.58;100.00;101572.13;5041588;28;20026;-69
2022/08/24 04:21:03;;;;;;;27.35;18.67;;;;;;;16.63;100.00;101573.00;5043964;28;20040;-69
2022/08/24 04:23:29;;;;;;;27.15;19.92;;;;;;;16.68;100.00;101567.59;5042570;28;20468;-69
2022/08/24 04:25:54;;;;;;;29.23;19.90;;;;;;;16.66;100.00;101578.31;5042541;28;20495;-69
2022/08/24 04:28:21;;;;;;;30.55;20.65;;;;;;;16.66;100.00;101580.97;5043373;28;20021;-69
2022/08/24 04:30:49;;;;;;;27.83;19.58;;;;;;;16.59;100.00;101576.59;5041894;28;20028;-69
2022/08/24 04:33:15;;;;;;;26.92;19.00;;;;;;;16.56;100.00;101574.81;5044454;28;20021;-70
2022/08/24 04:35:44;;;;;;;27.33;19.58;;;;;;;16.54;100.00;101581.06;5041185;28;20039;-69
2022/08/24 04:38:10;;;;;;;28.55;19.20;;;;;;;16.55;100.00;101580.19;5037133;28;20024;-70
2022/08/24 04:40:38;;;;;;;28.13;19.85;;;;;;;16.53;100.00;101576.66;5044028;28;20111;-69
2022/08/24 04:43:03;;;;;;;28.13;19.38;;;;;;;16.50;100.00;101574.00;5041570;28;20025;-66
2022/08/24 04:45:29;;;;;;;29.33;19.30;;;;;;;16.45;100.00;101581.16;5043033;28;20013;-67
2022/08/24 04:47:54;;;;;;;27.88;18.73;;;;;;;16.31;100.00;101575.91;5042669;28;20545;-67
2022/08/24 04:50:20;;;;;;;29.73;19.05;;;;;;;16.34;100.00;101582.13;5041401;28;20050;-68
2022/08/24 04:52:45;;;;;;;28.42;19.25;;;;;;;16.39;100.00;101576.75;5046188;28;20116;-67
2022/08/24 04:55:11;;;;;;;28.67;19.40;;;;;;;16.52;100.00;101577.53;5047730;28;20124;-67
2022/08/24 04:57:36;;;;;;;30.17;20.55;;;;;;;16.67;100.00;101585.44;5050355;28;20044;-68
2022/08/24 05:00:04;;;;;;;28.63;20.45;;;;;;;16.65;100.00;101587.19;5048445;28;20028;-67
2022/08/24 05:02:30;;;;;;;29.20;21.02;;;;;;;16.62;100.00;101587.22;5049693;28;20033;-68
2022/08/24 05:04:57;;;;;;;30.00;20.17;;;;;;;16.66;100.00;101583.66;5049063;28;20025;-67
2022/08/24 05:07:22;;;;;;;29.60;20.55;;;;;;;16.66;100.00;101588.06;5048526;28;20075;-67
2022/08/24 05:09:48;;;;;;;30.10;21.17;;;;;;;16.64;100.00;101590.75;5050452;28;20052;-68
2022/08/24 05:12:14;;;;;;;30.75;21.60;;;;;;;16.64;100.00;101590.75;5047188;28;20032;-65
2022/08/24 05:14:39;;;;;;;30.17;20.95;;;;;;;16.63;100.00;101589.00;5051060;28;20029;-67
2022/08/24 05:17:04;;;;;;;31.92;22.15;;;;;;;16.64;100.00;101595.22;5047777;28;20499;-67
2022/08/24 05:19:30;;;;;;;29.92;21.13;;;;;;;16.67;100.00;101590.75;5049257;28;20052;-66
2022/08/24 05:21:55;;;;;;;36.42;27.60;;;;;;;16.70;100.00;101595.16;5049285;28;20060;-67
2022/08/24 05:24:20;;;;;;;35.90;28.38;;;;;;;16.65;100.00;101592.53;5047868;28;20028;-67
2022/08/24 05:26:46;;;;;;;34.00;27.10;;;;;;;16.64;100.00;101589.88;5050787;28;20515;-68
2022/08/24 05:29:12;;;;;;;35.05;25.95;;;;;;;16.74;100.00;101596.91;5047053;28;20064;-67
2022/08/24 05:31:37;;;;;;;32.90;23.75;;;;;;;16.80;100.00;101602.19;5050154;28;20388;-68
2022/08/24 05:34:03;;;;;;;33.17;22.58;;;;;;;16.85;100.00;101603.03;5048201;28;20163;-67
2022/08/24 05:36:36;;;;;;;33.78;22.83;;;;;;;16.87;100.00;101605.69;5048946;28;20381;-70
2022/08/24 05:39:05;;;;;;;30.70;22.25;;;;;;;16.83;100.00;101607.50;5048080;28;20028;-69
2022/08/24 05:41:30;;;;;;;30.80;21.70;;;;;;;16.92;100.00;101609.25;5049319;28;20044;-70
2022/08/24 05:43:55;;;;;;;34.22;23.33;;;;;;;17.00;100.00;101601.16;5048961;28;20029;-70
2022/08/24 05:46:21;;;;;;;29.65;21.45;;;;;;;17.02;100.00;101608.25;5047857;28;20350;-70
2022/08/24 05:48:46;;;;;;;30.73;21.83;;;;;;;17.11;100.00;101609.03;5050445;28;20048;-70
2022/08/24 05:51:12;;;;;;;30.48;21.88;;;;;;;17.20;100.00;101607.16;5046675;28;20037;-70
2022/08/24 05:53:38;;;;;;;31.65;21.98;;;;;;;17.30;100.00;101602.59;5049955;28;20463;-70
2022/08/24 05:56:10;;;;;;;32.75;22.95;;;;;;;17.34;100.00;101609.66;5044923;28;20140;-77
2022/08/24 05:58:39;;;;;;;30.83;22.70;;;;;;;17.40;100.00;101609.59;5040017;28;20025;-61
2022/08/24 06:01:09;;;;;;;31.80;23.60;;;;;;;17.45;100.00;101614.03;5019473;28;20484;-61
2022/08/24 06:03:35;;;;;;;32.85;24.10;;;;;;;17.52;100.00;101599.69;5035856;28;20034;-62
2022/08/24 06:06:03;;;;;;;34.97;26.63;;;;;;;17.60;100.00;101601.34;5032058;28;20033;-60
2022/08/24 06:08:29;;;;;;;35.83;25.85;;;;;;;17.68;100.00;101609.25;5037293;28;20452;-62
2022/08/24 06:10:55;;;;;;;37.83;27.75;;;;;;;17.75;100.00;101610.94;5035087;28;20033;-61
2022/08/24 06:13:20;;;;;;;37.60;30.20;;;;;;;17.88;100.00;101610.75;5038537;28;20457;-61
2022/08/24 06:15:46;;;;;;;41.38;31.48;;;;;;;18.00;100.00;101620.44;5037889;28;20397;-62
2022/08/24 06:18:11;;;;;;;42.60;33.30;;;;;;;18.04;100.00;101616.81;5033830;28;20366;-61
2022/08/24 06:20:40;;;;;;;42.78;33.88;;;;;;;18.12;100.00;101622.94;5037032;28;20044;-63
2022/08/24 06:23:06;;;;;;;43.97;39.30;;;;;;;18.24;100.00;101624.56;5034817;28;20052;-62
2022/08/24 06:28:15;;;;;;;44.08;38.90;;;;;;;18.49;100.00;101629.53;5032518;28;20076;-63
2022/08/24 06:30:41;;;;;;;43.08;38.45;;;;;;;18.60;100.00;101627.56;5035604;28;20065;-63
2022/08/24 06:33:07;;;;;;;48.38;43.13;;;;;;;18.71;100.00;101628.28;5034388;28;20032;-64
2022/08/24 06:35:33;;;;;;;48.05;42.22;;;;;;;18.85;100.00;101627.13;5035823;28;20025;-65
2022/08/24 06:37:58;;;;;;;52.70;47.15;;;;;;;18.98;100.00;101623.34;5036750;28;20500;-64
2022/08/24 06:40:24;;;;;;;54.10;48.47;;;;;;;19.12;100.00;101637.38;5034484;28;20461;-62
2022/08/24 06:42:50;;;;;;;55.20;49.58;;;;;;;19.20;100.00;101633.69;5034113;28;20022;-61
2022/08/24 06:45:16;;;;;;;54.88;49.28;;;;;;;19.33;100.00;101635.19;5035581;28;20500;-61
2022/08/24 06:47:41;;;;;;;57.35;51.45;;;;;;;19.46;100.00;101638.53;5032921;28;20120;-62
2022/08/24 06:50:07;;;;;;;55.97;50.22;;;;;;;19.52;100.00;101639.25;5034114;28;20129;-61
2022/08/24 06:52:34;;;;;;;55.00;49.30;;;;;;;19.65;100.00;101636.34;5039583;28;20090;-61
2022/08/24 06:55:00;;;;;;;52.17;46.78;;;;;;;19.71;100.00;101640.69;5037082;28;20033;-61
2022/08/24 06:57:26;;;;;;;52.95;47.50;;;;;;;19.78;100.00;101643.25;5034150;28;20392;-62
2022/08/24 06:59:51;;;;;;;54.63;48.72;;;;;;;19.91;100.00;101648.34;5035409;28;20057;-62
2022/08/24 07:02:18;;;;;;;52.33;47.03;;;;;;;19.97;100.00;101642.84;5037613;28;20052;-61
2022/08/24 07:04:44;;;;;;;50.30;44.92;;;;;;;20.07;100.00;101649.78;5034463;28;20443;-61
2022/08/24 07:07:10;;;;;;;47.83;42.60;;;;;;;20.18;100.00;101642.38;5034928;28;20029;-64
2022/08/24 07:09:35;;;;;;;46.53;41.53;;;;;;;20.29;100.00;101652.84;5036326;28;20392;-61
2022/08/24 07:12:00;;;;;;;46.50;41.45;;;;;;;20.40;100.00;101651.69;5034332;28;20029;-64
2022/08/24 07:14:26;;;;;;;44.50;39.53;;;;;;;20.49;100.00;101654.16;5034196;28;20029;-64
2022/08/24 07:16:52;;;;;;;44.10;39.35;;;;;;;20.61;100.00;101648.50;5035124;28;20439;-64
2022/08/24 07:19:17;;;;;;;44.28;39.45;;;;;;;20.76;100.00;101655.31;5037486;28;20037;-70
2022/08/24 07:21:43;;;;;;;43.38;38.67;;;;;;;20.92;100.00;101660.31;5033310;28;20021;-65
2022/08/24 07:24:09;;;;;;;42.13;37.15;;;;;;;21.09;100.00;101663.41;5033016;28;20799;-62
2022/08/24 07:26:35;;;;;;;41.88;36.70;;;;;;;21.28;100.00;101668.31;5033305;28;20060;-61
2022/08/24 07:29:13;;;;;;;40.00;35.67;;;;;;;21.44;100.00;101669.63;5035140;28;20053;-61
2022/08/24 07:31:38;;;;;;;41.17;36.67;;;;;;;21.62;100.00;101670.06;5033589;28;20037;-62
2022/08/24 07:34:06;;;;;;;39.65;34.67;;;;;;;21.82;100.00;101669.50;5033541;28;20036;-62
2022/08/24 07:36:32;;;;;;;39.88;34.17;;;;;;;22.02;100.00;101660.78;5033087;28;20107;-63
2022/08/24 07:38:58;;;;;;;38.70;32.95;;;;;;;22.15;100.00;101656.81;5030405;28;20394;-63
2022/08/24 07:41:27;;;;;;;38.10;32.35;;;;;;;22.32;100.00;101658.09;5029813;28;20037;-66
2022/08/24 07:43:53;;;;;;;37.30;32.00;;;;;;;22.41;100.00;101657.81;5029260;28;20029;-62
2022/08/24 07:46:19;;;;;;;38.28;31.55;;;;;;;22.52;100.00;101655.66;5036647;28;20023;-65
2022/08/24 07:48:44;;;;;;;36.35;30.95;;;;;;;22.65;100.00;101657.97;5031546;28;20116;-66
2022/08/24 07:51:13;;;;;;;39.28;31.02;;;;;;;22.75;100.00;101662.09;5036352;28;20048;-66
2022/08/24 07:53:39;;;;;;;37.13;29.08;;;;;;;22.87;100.00;101658.09;5029685;28;20396;-64
2022/08/24 07:56:05;;;;;;;33.25;27.70;;;;;;;23.02;100.00;101662.94;5037703;28;20033;-67
2022/08/24 07:58:31;;;;;;;33.67;28.67;;;;;;;23.10;100.00;101658.22;5032823;28;20057;-68
2022/08/24 08:00:56;;;;;;;32.72;26.83;;;;;;;23.18;100.00;101662.44;5036249;28;20052;-69
2022/08/24 08:03:24;;;;;;;32.45;25.98;;;;;;;23.25;100.00;101656.78;5030104;28;20072;-67
2022/08/24 08:05:55;;;;;;;33.03;25.75;;;;;;;23.44;100.00;101665.06;5040004;28;20030;-67
2022/08/24 08:08:20;;;;;;;33.15;26.10;;;;;;;23.73;100.00;101657.72;5044679;28;20055;-68
2022/08/24 08:10:46;;;;;;;32.70;25.05;;;;;;;24.07;100.00;101667.25;5041527;28;20474;-68
2022/08/24 08:13:11;;;;;;;29.60;22.33;;;;;;;24.41;100.00;101670.44;5044607;28;20372;-68
2022/08/24 08:15:36;;;;;;;28.42;20.35;;;;;;;24.70;100.00;101664.72;5042496;28;20159;-68
2022/08/24 08:18:02;;;;;;;28.95;18.02;;;;;;;25.04;100.00;101665.97;5042935;28;20022;-68
2022/08/24 08:20:27;;;;;;;26.63;16.17;;;;;;;25.32;100.00;101675.59;5043684;28;20491;-69
2022/08/24 08:25:37;;;;;;;24.88;13.60;;;;;;;26.54;100.00;101671.75;5042579;28;20048;-69
2022/08/24 08:28:05;;;;;;;24.67;14.75;;;;;;;26.75;100.00;101676.13;5042505;28;20037;-69
2022/08/24 08:30:31;;;;;;;25.10;14.35;;;;;;;27.03;97.81;101674.69;5042789;28;20096;-69
2022/08/24 08:32:56;;;;;;;25.25;12.77;;;;;;;27.05;96.55;101670.06;5042279;28;20026;-69
2022/08/24 08:35:22;;;;;;;21.67;11.40;;;;;;;27.31;96.96;101673.22;5044015;28;20028;-69
2022/08/24 08:37:48;;;;;;;21.40;10.80;;;;;;;27.46;92.08;101666.13;5041289;28;20392;-69
2022/08/24 08:40:54;;;;;;;23.15;11.45;;;;;;;28.07;96.31;101671.88;5044471;28;20060;-69
2022/08/24 08:43:40;;;;;;;22.60;11.30;;;;;;;29.13;87.66;101676.56;4996061;28;20033;-69
2022/08/24 08:46:39;;;;;;;21.98;9.38;;;;;;;30.27;81.06;101664.94;5000376;28;20408;-69
2022/08/24 08:49:31;;;;;;;20.63;7.68;;;;;;;30.98;67.73;101682.88;5001164;28;20469;-69
2022/08/24 08:52:11;;;;;;;19.88;7.00;;;;;;;31.62;62.17;101680.25;4998036;28;20117;-69
2022/08/24 08:54:36;;;;;;;19.58;6.50;;;;;;;32.08;50.85;101676.03;5000187;28;20037;-69
2022/08/24 08:57:13;;;;;;;20.77;8.00;;;;;;;32.35;51.87;101680.44;5000861;28;20057;-69
2022/08/24 09:00:05;;;;;;;18.38;6.38;;;;;;;32.45;51.52;101675.16;4999846;28;20500;-69
2022/08/24 09:03:01;;;;;;;15.35;4.70;;;;;;;32.94;46.38;101673.25;5000722;28;20037;-68
2022/08/24 09:05:56;;;;;;;18.83;6.20;;;;;;;32.88;45.75;101680.09;4997751;28;20062;-69
2022/08/24 09:08:48;;;;;;;17.63;5.95;;;;;;;32.69;47.89;101677.91;4996356;28;20113;-69
2022/08/24 09:11:32;;;;;;;18.70;6.78;;;;;;;32.10;47.86;101681.38;4999176;28;20054;-70
2022/08/24 09:14:13;;;;;;;18.08;7.30;;;;;;;31.75;45.69;101679.38;5000237;28;20441;-70
2022/08/24 09:17:07;;;;;;;20.63;8.32;;;;;;;31.93;46.57;101680.72;5010925;28;20037;-70
2022/08/24 09:19:55;;;;;;;18.90;6.50;;;;;;;32.15;47.87;101668.25;5040966;28;20163;-70
2022/08/24 09:22:21;;;;;;;14.05;4.65;;;;;;;31.50;46.31;101672.91;5037723;28;20030;-70
2022/08/24 09:24:52;;;;;;;14.10;4.40;;;;;;;30.51;49.82;101678.78;5043995;28;20048;-68
2022/08/24 09:27:50;;;;;;;15.95;5.30;;;;;;;30.14;50.58;101682.06;5036717;28;20037;-69
2022/08/24 09:30:34;;;;;;;18.20;6.00;;;;;;;30.63;49.40;101677.13;5036704;28;20033;-68
2022/08/24 09:33:22;;;;;;;14.63;5.00;;;;;;;31.36;48.08;101679.34;5039685;28;20033;-68
2022/08/24 09:36:11;;;;;;;18.20;5.22;;;;;;;31.71;47.92;101680.56;5033235;28;20041;-66
2022/08/24 09:38:57;;;;;;;18.83;6.93;;;;;;;32.13;45.77;101676.56;5038447;28;20084;-66
2022/08/24 09:42:10;;;;;;;18.58;7.00;;;;;;;32.78;44.77;101677.22;5044219;28;20603;-67
2022/08/24 09:44:49;;;;;;;19.55;6.82;;;;;;;33.32;41.41;101683.09;5002262;28;20037;-65
2022/08/24 09:47:52;;;;;;;17.17;5.55;;;;;;;34.12;40.60;101686.75;5003789;28;20432;-64
2022/08/24 09:51:07;;;;;;;17.98;6.43;;;;;;;34.78;39.79;101683.06;4999635;28;20157;-66
2022/08/24 09:53:38;;;;;;;15.70;4.80;;;;;;;34.35;35.95;101684.88;4907525;29;20040;-69
2022/08/24 09:56:30;;;;;;;11.70;4.00;;;;;;;34.77;35.91;101679.47;4908828;29;20489;-66
2022/08/24 09:59:16;;;;;;;12.80;4.00;;;;;;;35.48;35.26;101683.50;4888168;29;20045;-64
2022/08/24 10:02:09;;;;;;;12.02;3.72;;;;;;;35.95;33.96;101675.59;4888877;29;20489;-68
2022/08/24 10:04:49;;;;;;;12.20;3.90;;;;;;;36.66;32.82;101680.09;4888791;29;20033;-67
2022/08/24 10:07:32;;;;;;;8.35;3.35;;;;;;;37.57;32.47;101678.84;4889104;29;20040;-69
2022/08/24 10:10:15;;;;;;;10.95;3.50;;;;;;;38.36;30.36;101670.03;4890070;29;20068;-69
2022/08/24 10:13:18;;;;;;;10.73;3.60;;;;;;;39.08;29.67;101671.91;4889579;29;20052;-70
2022/08/24 10:16:11;;;;;;;10.02;3.67;;;;;;;38.62;29.65;101672.03;4872315;29;20067;-70
2022/08/24 10:18:54;;;;;;;12.68;3.53;;;;;;;36.93;31.67;101664.75;4889031;29;20131;-68
2022/08/24 10:21:30;;;;;;;11.35;3.45;;;;;;;37.24;29.57;101659.03;4889066;29;20037;-68
2022/08/24 10:24:17;;;;;;;10.13;3.50;;;;;;;38.02;28.07;101664.28;4916725;28;20122;-64
2022/08/24 10:27:17;;;;;;;8.30;3.00;;;;;;;37.95;28.11;101664.03;4945967;28;20039;-66
2022/08/24 10:29:59;;;;;;;8.88;2.90;;;;;;;36.54;30.17;101653.72;4962179;28;20746;-63
2022/08/24 10:32:42;;;;;;;12.13;3.72;;;;;;;35.49;32.31;101652.25;4962762;28;20062;-65
2022/08/24 10:35:10;;;;;;;10.80;3.22;;;;;;;34.31;33.09;101643.13;4969501;28;20031;-65
2022/08/24 10:39:39;;;;;;;9.27;3.00;;;;;;;33.84;35.62;101654.28;5043811;28;20034;-66
2022/08/24 10:41:03;;;;;;;9.02;3.20;;;;;;;33.32;36.09;101651.13;5041557;28;20119;-58
2022/08/24 10:44:10;;;;;;;7.25;3.00;;;;;;;33.30;36.88;101657.69;5032433;28;20379;-64
2022/08/24 10:46:38;;;;;;;7.13;2.72;;;;;;;33.66;36.10;101648.38;5041547;28;20039;-59
2022/08/24 10:49:25;;;;;;;7.40;2.90;;;;;;;35.19;34.74;101653.94;5033713;28;20087;-59
2022/08/24 10:52:13;;;;;;;8.88;2.97;;;;;;;37.46;30.39;101650.44;5037391;28;20041;-59
2022/08/24 10:54:39;;;;;;;9.63;2.88;;;;;;;38.65;27.90;101645.97;5038953;28;20029;-59
2022/08/24 10:57:21;;;;;;;5.18;2.70;;;;;;;40.20;24.74;101650.75;5035183;28;20029;-61
2022/08/24 11:00:13;;;;;;;9.95;3.00;;;;;;;41.13;25.56;101654.31;5036121;28;20037;-59
2022/08/24 11:02:40;;;;;;;9.50;3.47;;;;;;;41.57;23.92;101644.66;5037429;28;20035;-63
2022/08/24 11:05:12;;;;;;;9.13;3.10;;;;;;;42.81;23.48;101636.47;5030589;28;20045;-66
2022/08/24 11:07:53;;;;;;;8.82;3.40;;;;;;;43.60;22.81;101649.06;5033634;28;20033;-60
2022/08/24 11:10:49;;;;;;;8.38;3.13;;;;;;;43.61;21.46;101634.09;5035138;28;20029;-59
2022/08/24 11:13:17;;;;;;;10.15;3.20;;;;;;;41.17;23.82;101636.28;4990016;28;20045;-60
2022/08/24 11:15:48;;;;;;;10.27;3.40;;;;;;;39.63;25.13;101633.94;4990038;28;20407;-59
2022/08/24 11:18:14;;;;;;;10.40;3.40;;;;;;;39.27;25.76;101628.53;4991198;28;20375;-59
2022/08/24 11:20:43;;;;;;;9.23;3.00;;;;;;;39.72;24.50;101630.19;4991230;28;20037;-59
2022/08/24 11:23:23;;;;;;;10.80;3.13;;;;;;;39.39;26.08;101621.69;4989127;28;20030;-58
2022/08/24 11:26:11;;;;;;;10.65;3.10;;;;;;;37.48;27.83;101626.34;4990139;28;20038;-59
2022/08/24 11:28:45;;;;;;;10.55;3.30;;;;;;;36.30;29.99;101628.34;4974747;28;20042;-60
2022/08/24 11:31:19;;;;;;;9.32;3.22;;;;;;;37.59;27.77;101627.19;4990559;28;20030;-59
2022/08/24 11:33:47;;;;;;;9.40;3.10;;;;;;;38.41;26.37;101622.66;4988683;28;20022;-58